Time;durP1;ratioP1;P1;durP2;ratioP2;P2;SDS_P1;SDS_P2;PMS_P1;PMS_P2;Temp;Humidity;BMP_temperature;BMP_pressure;BME280_temperature;BME280_humidity;BME280_pressure;Samples;Min_cycle;Max_cycle;Signal;HPM_P1;HPM_P2
2021/01/12 00:01:42;;;;;;;56.85;27.75;;;-3.90;90.60;;;;;;5086371;28;20028;-68
2021/01/12 00:04:08;;;;;;;62.38;29.73;;;-3.90;90.60;;;;;;5087450;28;20078;-67
2021/01/12 00:06:33;;;;;;;64.65;27.63;;;-3.80;90.40;;;;;;5087809;28;20032;-67
2021/01/12 00:08:59;;;;;;;64.32;29.08;;;-3.80;90.20;;;;;;5087413;28;20022;-67
2021/01/12 00:11:24;;;;;;;54.42;27.38;;;-3.80;90.20;;;;;;5087009;28;20036;-66
2021/01/12 00:13:50;;;;;;;55.97;25.60;;;-3.80;90.10;;;;;;5087059;28;20044;-68
2021/01/12 00:16:19;;;;;;;72.28;29.05;;;-3.90;90.20;;;;;;5087264;28;20404;-68
2021/01/12 00:18:46;;;;;;;63.22;26.02;;;-3.90;90.20;;;;;;5087153;28;20032;-68
2021/01/12 00:21:11;;;;;;;53.90;26.15;;;-3.90;90.40;;;;;;5087134;28;20755;-68
2021/01/12 00:23:37;;;;;;;51.50;24.88;;;-3.90;90.60;;;;;;5086944;28;20496;-67
2021/01/12 00:26:07;;;;;;;57.65;26.95;;;-4.00;90.60;;;;;;5087068;28;20081;-67
2021/01/12 00:28:36;;;;;;;60.75;28.77;;;-4.00;90.60;;;;;;5086985;28;20032;-68
2021/01/12 00:31:04;;;;;;;60.13;25.88;;;-3.90;90.50;;;;;;5085758;28;20027;-67
2021/01/12 00:33:33;;;;;;;59.33;26.58;;;-4.00;90.40;;;;;;5087031;28;20031;-68
2021/01/12 00:36:06;;;;;;;61.70;25.67;;;-4.00;90.50;;;;;;5085863;28;20024;-67
2021/01/12 00:38:32;;;;;;;54.53;24.80;;;-4.00;90.50;;;;;;5086975;28;20055;-67
2021/01/12 00:40:58;;;;;;;57.53;25.80;;;-4.00;90.50;;;;;;5086556;28;20016;-67
2021/01/12 00:43:25;;;;;;;52.10;24.30;;;-3.90;90.60;;;;;;5086786;28;20042;-68
2021/01/12 00:45:51;;;;;;;49.92;22.60;;;-4.00;90.50;;;;;;5086302;28;20032;-67
2021/01/12 00:48:17;;;;;;;66.93;27.40;;;-3.90;90.50;;;;;;5085514;28;20385;-67
2021/01/12 00:50:42;;;;;;;59.80;25.73;;;-3.90;90.50;;;;;;5086665;28;20027;-67
2021/01/12 00:53:08;;;;;;;56.55;25.15;;;-3.90;90.40;;;;;;5086853;28;20036;-68
2021/01/12 00:55:33;;;;;;;54.88;24.33;;;-3.90;90.40;;;;;;5086014;28;20027;-68
2021/01/12 00:57:59;;;;;;;;;;;-4.00;90.40;;;;;;5086960;28;20488;-68
2021/01/12 01:00:25;;;;;;;53.30;22.38;;;-4.00;90.50;;;;;;5086420;28;20499;-68
2021/01/12 01:02:50;;;;;;;;;;;-4.00;90.40;;;;;;5086413;28;20028;-67
2021/01/12 01:05:16;;;;;;;41.80;19.10;;;-4.00;90.50;;;;;;5086479;28;19916;-67
2021/01/12 01:07:46;;;;;;;42.30;20.92;;;-4.00;90.60;;;;;;5086768;28;20092;-67
2021/01/12 01:10:12;;;;;;;46.17;20.77;;;-4.00;90.60;;;;;;5086489;28;20036;-68
2021/01/12 01:12:37;;;;;;;60.30;24.08;;;-4.00;90.60;;;;;;5086448;28;20031;-69
2021/01/12 01:15:04;;;;;;;69.93;26.35;;;-4.00;90.60;;;;;;5086270;28;20054;-67
2021/01/12 01:17:29;;;;;;;66.63;25.40;;;-4.10;90.40;;;;;;5086341;28;20028;-69
2021/01/12 01:19:55;;;;;;;67.10;27.35;;;-4.10;90.40;;;;;;5085194;28;20043;-69
2021/01/12 01:22:24;;;;;;;56.65;23.83;;;-4.10;90.40;;;;;;5086487;28;20504;-67
2021/01/12 01:24:49;;;;;;;48.75;20.73;;;-4.20;90.50;;;;;;5085796;28;20128;-67
2021/01/12 01:27:15;;;;;;;40.15;19.02;;;-4.20;90.70;;;;;;5086450;28;20125;-69
2021/01/12 01:29:41;;;;;;;42.85;20.52;;;-4.20;90.80;;;;;;5085792;28;20366;-66
2021/01/12 01:32:09;;;;;;;55.33;22.50;;;-4.20;90.90;;;;;;5085920;28;20381;-68
2021/01/12 01:34:35;;;;;;;61.65;22.00;;;-4.20;90.80;;;;;;5085085;28;20026;-69
2021/01/12 01:37:01;;;;;;;56.15;21.92;;;-4.10;90.60;;;;;;5086372;28;20036;-68
2021/01/12 01:39:26;;;;;;;45.47;20.70;;;-4.10;90.40;;;;;;5086004;28;20556;-68
2021/01/12 01:41:55;;;;;;;36.85;18.02;;;-4.10;90.30;;;;;;5085816;28;20080;-68
2021/01/12 01:44:20;;;;;;;41.20;19.27;;;-4.10;90.30;;;;;;5085607;28;20085;-68
2021/01/12 01:46:46;;;;;;;47.20;21.27;;;-4.10;90.30;;;;;;5085852;28;20064;-68
2021/01/12 01:49:12;;;;;;;46.83;17.77;;;-4.20;90.40;;;;;;5086061;28;20036;-69
2021/01/12 01:51:39;;;;;;;43.75;19.88;;;-4.20;90.50;;;;;;5085534;28;20033;-67
2021/01/12 01:54:05;;;;;;;41.47;18.88;;;-4.20;90.60;;;;;;5085689;28;20487;-67
2021/01/12 01:56:31;;;;;;;44.47;19.45;;;-4.20;90.60;;;;;;5085699;28;20020;-68
2021/01/12 01:58:56;;;;;;;43.78;18.40;;;-4.20;90.60;;;;;;5084239;28;20051;-67
2021/01/12 02:01:22;;;;;;;45.70;19.98;;;-4.30;90.70;;;;;;5086049;28;20028;-68
2021/01/12 02:03:59;;;;;;;41.58;18.45;;;-4.30;90.80;;;;;;5085627;28;20039;-69
2021/01/12 02:06:32;;;;;;;45.25;21.25;;;-4.30;90.80;;;;;;5086850;28;20024;-66
2021/01/12 02:09:10;;;;;;;49.38;21.83;;;-4.40;90.80;;;;;;5088650;28;20035;-67
2021/01/12 02:11:42;;;;;;;53.83;21.27;;;-4.40;90.90;;;;;;5089752;28;20028;-66
2021/01/12 02:14:13;;;;;;;52.10;22.77;;;-4.50;90.90;;;;;;5089147;28;20393;-67
2021/01/12 02:16:41;;;;;;;48.50;23.00;;;-4.50;90.90;;;;;;5089959;28;20365;-68
2021/01/12 02:19:11;;;;;;;47.53;21.27;;;-4.50;90.90;;;;;;5089283;28;20020;-69
2021/01/12 02:21:45;;;;;;;71.82;28.25;;;-4.50;91.00;;;;;;5088566;28;20024;-67
2021/01/12 02:24:11;;;;;;;64.22;29.27;;;-4.60;91.00;;;;;;5088970;28;20056;-68
2021/01/12 02:26:37;;;;;;;60.45;27.02;;;-4.60;91.30;;;;;;5089988;28;20035;-68
2021/01/12 02:29:03;;;;;;;67.22;27.85;;;-4.70;91.30;;;;;;5088915;28;20229;-68
2021/01/12 02:31:30;;;;;;;57.25;26.08;;;-4.70;91.10;;;;;;5089443;28;20099;-67
2021/01/12 02:34:00;;;;;;;60.95;27.05;;;-4.70;91.20;;;;;;5087776;28;20086;-67
2021/01/12 02:36:26;;;;;;;61.75;29.95;;;-4.70;91.30;;;;;;5087761;28;20028;-67
2021/01/12 02:38:52;;;;;;;56.63;25.20;;;-4.70;91.30;;;;;;5088071;28;20481;-67
2021/01/12 02:41:18;;;;;;;53.35;24.00;;;-4.70;91.40;;;;;;5089059;28;20024;-68
2021/01/12 02:43:45;;;;;;;60.13;26.92;;;-4.80;91.40;;;;;;5087516;28;21079;-66
2021/01/12 02:46:13;;;;;;;55.65;23.83;;;-4.80;91.30;;;;;;5088830;28;20427;-68
2021/01/12 02:48:39;;;;;;;61.10;28.77;;;-4.90;91.50;;;;;;5089223;28;20481;-67
2021/01/12 02:51:05;;;;;;;59.80;25.38;;;-4.80;91.50;;;;;;5088826;28;20048;-67
2021/01/12 02:53:31;;;;;;;61.72;26.20;;;-4.90;91.50;;;;;;5089064;28;20617;-67
2021/01/12 02:55:57;;;;;;;72.72;29.25;;;-4.90;91.60;;;;;;5089217;28;20039;-67
2021/01/12 02:58:23;;;;;;;67.03;30.92;;;-4.90;91.60;;;;;;5088220;28;20027;-67
2021/01/12 03:00:48;;;;;;;74.40;30.00;;;-4.90;91.60;;;;;;5088812;28;20035;-68
2021/01/12 03:03:14;;;;;;;58.35;26.27;;;-4.90;91.50;;;;;;5089168;28;20751;-68
2021/01/12 03:05:39;;;;;;;53.25;23.65;;;-4.80;91.50;;;;;;5088593;28;20606;-68
2021/01/12 03:08:06;;;;;;;49.40;20.42;;;-4.80;91.50;;;;;;5088522;28;20049;-68
2021/01/12 03:10:32;;;;;;;39.88;18.65;;;-4.80;91.50;;;;;;5087514;28;20140;-67
2021/01/12 03:12:57;;;;;;;39.53;18.23;;;-4.80;91.50;;;;;;5088453;28;20055;-68
2021/01/12 03:15:23;;;;;;;44.55;18.80;;;-4.80;91.40;;;;;;5088353;28;20027;-67
2021/01/12 03:17:48;;;;;;;44.17;19.23;;;-4.80;91.50;;;;;;5088130;28;20024;-67
2021/01/12 03:20:14;;;;;;;42.15;20.45;;;-4.80;91.40;;;;;;5088085;28;20035;-66
2021/01/12 03:22:41;;;;;;;44.83;21.38;;;-4.80;91.40;;;;;;5088716;28;20551;-69
2021/01/12 03:25:08;;;;;;;45.13;21.27;;;-4.80;91.40;;;;;;5086973;28;20517;-67
2021/01/12 03:27:34;;;;;;;41.40;19.02;;;-4.80;91.40;;;;;;5087708;28;20020;-68
2021/01/12 03:29:59;;;;;;;38.35;17.70;;;-4.80;91.40;;;;;;5088256;28;20031;-69
2021/01/12 03:32:25;;;;;;;42.80;18.92;;;-4.90;91.40;;;;;;5088364;28;20036;-68
2021/01/12 03:34:51;;;;;;;38.72;17.95;;;-4.90;91.50;;;;;;5087903;28;20551;-67
2021/01/12 03:37:16;;;;;;;40.85;19.48;;;-4.90;91.50;;;;;;5088251;28;20114;-68
2021/01/12 03:39:42;;;;;;;42.97;19.25;;;-4.90;91.60;;;;;;5087858;28;20023;-68
2021/01/12 03:42:08;;;;;;;39.72;18.77;;;-4.90;91.60;;;;;;5087975;28;20081;-67
2021/01/12 03:44:33;;;;;;;44.35;20.48;;;-4.90;91.60;;;;;;5086199;28;20055;-67
2021/01/12 03:46:59;;;;;;;42.03;19.00;;;-4.90;91.60;;;;;;5087430;28;20036;-68
2021/01/12 03:49:25;;;;;;;43.22;19.23;;;-4.90;92.00;;;;;;5088006;28;20438;-67
2021/01/12 03:51:50;;;;;;;43.45;17.67;;;-4.90;91.60;;;;;;5086216;28;20028;-67
2021/01/12 03:54:16;;;;;;;42.30;18.95;;;-4.90;91.60;;;;;;5087590;28;20040;-68
2021/01/12 03:56:42;;;;;;;39.83;18.67;;;-4.90;91.70;;;;;;5087273;28;20101;-68
2021/01/12 03:59:07;;;;;;;38.83;17.35;;;-4.90;91.70;;;;;;5087337;28;20109;-68
2021/01/12 04:01:33;;;;;;;33.00;16.23;;;-4.90;91.60;;;;;;5087407;28;20534;-67
2021/01/12 04:03:58;;;;;;;35.13;16.58;;;-4.90;91.60;;;;;;5087861;28;20502;-68
2021/01/12 04:06:24;;;;;;;41.20;17.73;;;-5.00;91.60;;;;;;5087362;28;20043;-67
2021/01/12 04:08:54;;;;;;;38.05;18.77;;;-5.00;91.60;;;;;;5087828;28;20034;-67
2021/01/12 04:11:20;;;;;;;54.20;24.38;;;-5.00;91.70;;;;;;5085804;28;20031;-68
2021/01/12 04:13:45;;;;;;;77.03;34.83;;;-5.00;91.70;;;;;;5087834;28;20706;-68
2021/01/12 04:16:12;;;;;;;88.65;40.35;;;-5.00;91.80;;;;;;5087566;28;20036;-67
2021/01/12 04:18:37;;;;;;;80.57;37.38;;;-5.00;91.80;;;;;;5087794;28;20035;-67
2021/01/12 04:21:03;;;;;;;66.00;30.08;;;-5.00;91.90;;;;;;5086921;28;20032;-68
2021/01/12 04:23:29;;;;;;;59.38;28.05;;;-5.00;91.90;;;;;;5087172;28;20370;-67
2021/01/12 04:25:54;;;;;;;60.50;26.20;;;-5.00;91.90;;;;;;5085681;28;20076;-68
2021/01/12 04:28:20;;;;;;;53.83;25.02;;;-5.00;91.90;;;;;;5086610;28;20028;-67
2021/01/12 04:30:46;;;;;;;63.97;27.60;;;-5.00;91.80;;;;;;5086231;28;20032;-68
2021/01/12 04:33:12;;;;;;;63.15;27.88;;;-5.00;91.70;;;;;;5087251;28;20131;-68
2021/01/12 04:35:38;;;;;;;61.15;29.23;;;-5.10;91.80;;;;;;5087183;28;20027;-68
2021/01/12 04:38:04;;;;;;;57.15;24.20;;;-5.10;91.80;;;;;;5086831;28;20047;-68
2021/01/12 04:40:29;;;;;;;52.55;23.23;;;-5.10;91.90;;;;;;5086782;28;20338;-68
2021/01/12 04:42:57;;;;;;;49.15;22.20;;;-5.10;91.90;;;;;;5086775;28;20107;-67
2021/01/12 04:45:23;;;;;;;52.20;21.65;;;-5.10;91.90;;;;;;5086457;28;20036;-68
2021/01/12 04:47:48;;;;;;;58.63;24.65;;;-5.20;91.90;;;;;;5086932;28;20023;-68
2021/01/12 04:50:14;;;;;;;55.25;26.13;;;-5.20;91.90;;;;;;5085690;28;20046;-67
2021/01/12 04:52:52;;;;;;;52.47;23.13;;;-5.20;91.90;;;;;;5086824;28;20046;-68
2021/01/12 04:55:19;;;;;;;47.88;21.38;;;-5.20;92.00;;;;;;5086785;28;20031;-67
2021/01/12 04:57:45;;;;;;;50.50;24.20;;;-5.20;91.90;;;;;;5086469;28;20067;-67
2021/01/12 05:00:29;;;;;;;60.38;27.90;;;-5.20;91.90;;;;;;5086875;28;20024;-68
2021/01/12 05:03:06;;;;;;;49.58;23.33;;;-5.20;92.00;;;;;;5087061;28;20027;-67
2021/01/12 05:05:41;;;;;;;53.70;26.40;;;-5.20;91.90;;;;;;5086460;28;20036;-67
2021/01/12 05:08:09;;;;;;;61.00;26.23;;;-5.20;91.90;;;;;;5086170;28;20151;-67
2021/01/12 05:10:38;;;;;;;49.05;22.40;;;-5.20;92.00;;;;;;5086536;28;20077;-68
2021/01/12 05:13:09;;;;;;;52.05;23.48;;;-5.30;91.90;;;;;;5086660;28;20024;-67
2021/01/12 05:15:39;;;;;;;47.30;22.42;;;-5.20;92.20;;;;;;5086531;28;20032;-68
2021/01/12 05:18:10;;;;;;;45.78;21.27;;;-5.30;92.00;;;;;;5086292;28;20480;-67
2021/01/12 05:20:50;;;;;;;47.13;22.52;;;-5.30;92.10;;;;;;5086062;28;20036;-68
2021/01/12 05:23:24;;;;;;;50.63;21.35;;;-5.30;92.00;;;;;;5086539;28;20032;-68
2021/01/12 05:25:53;;;;;;;46.35;21.15;;;-5.40;92.10;;;;;;5084645;28;20055;-68
2021/01/12 05:28:19;;;;;;;53.42;24.23;;;-5.40;92.10;;;;;;5086276;28;20031;-68
2021/01/12 05:30:48;;;;;;;44.15;21.00;;;-5.40;92.10;;;;;;5084964;28;20032;-67
2021/01/12 05:33:20;;;;;;;43.17;20.90;;;-5.40;92.10;;;;;;5085935;28;20615;-68
2021/01/12 05:35:47;;;;;;;43.45;20.70;;;-5.30;92.20;;;;;;5086393;28;20902;-68
2021/01/12 05:38:28;;;;;;;49.88;21.98;;;-5.30;92.20;;;;;;5084493;28;20080;-68
2021/01/12 05:41:01;;;;;;;58.80;25.70;;;-5.30;92.10;;;;;;5086861;28;20585;-67
2021/01/12 05:43:32;;;;;;;46.03;21.40;;;-5.20;92.40;;;;;;5089303;28;20032;-68
2021/01/12 05:46:07;;;;;;;44.83;19.65;;;-5.10;92.60;;;;;;5090367;28;20059;-68
2021/01/12 05:48:43;;;;;;;43.65;19.38;;;-5.00;92.50;;;;;;5090345;28;20024;-68
2021/01/12 05:51:13;;;;;;;55.17;23.77;;;-5.00;92.40;;;;;;5088847;28;20028;-66
2021/01/12 05:53:44;;;;;;;50.65;23.98;;;-5.00;92.20;;;;;;5089981;28;20075;-66
2021/01/12 05:56:13;;;;;;;52.88;23.33;;;-5.00;92.10;;;;;;5088082;28;20031;-67
2021/01/12 05:58:47;;;;;;;54.78;23.80;;;-5.10;91.90;;;;;;5090198;28;20032;-68
2021/01/12 06:01:27;;;;;;;50.83;22.30;;;-5.20;91.70;;;;;;5088483;28;20032;-67
2021/01/12 06:03:53;;;;;;;64.45;28.02;;;-5.20;91.70;;;;;;5091909;27;20427;-68
2021/01/12 06:06:19;;;;;;;72.55;30.20;;;-5.30;91.70;;;;;;5095549;27;20042;-67
2021/01/12 06:08:50;;;;;;;67.93;31.33;;;-5.30;92.00;;;;;;5129658;27;20043;-66
2021/01/12 06:11:18;;;;;;;62.53;28.55;;;-5.30;92.20;;;;;;5130518;27;20999;-66
2021/01/12 06:13:56;;;;;;;55.20;25.98;;;-5.30;92.00;;;;;;5129842;27;20467;-67
2021/01/12 06:16:26;;;;;;;64.28;30.35;;;-5.20;92.00;;;;;;5111878;27;20035;-68
2021/01/12 06:19:12;;;;;;;57.92;27.63;;;-5.20;92.00;;;;;;5111855;27;20035;-68
2021/01/12 06:22:13;;;;;;;63.72;28.08;;;-5.20;92.00;;;;;;5130560;27;20019;-68
2021/01/12 06:24:47;;;;;;;86.57;37.30;;;-5.20;91.70;;;;;;5129725;27;20068;-68
2021/01/12 06:27:18;;;;;;;104.78;44.05;;;-5.10;91.70;;;;;;5130489;27;20031;-68
2021/01/12 06:29:46;;;;;;;125.97;50.70;;;-5.10;91.60;;;;;;5111828;27;20019;-68
2021/01/12 06:32:31;;;;;;;130.95;57.05;;;-5.10;91.50;;;;;;5130447;27;20395;-69
2021/01/12 06:34:59;;;;;;;133.60;54.40;;;-5.10;91.50;;;;;;5130369;27;20098;-68
2021/01/12 06:37:27;;;;;;;133.80;47.72;;;-5.10;91.50;;;;;;5130017;27;20411;-68
2021/01/12 06:40:01;;;;;;;108.22;45.75;;;-5.10;91.50;;;;;;5129938;27;20027;-68
2021/01/12 06:42:29;;;;;;;111.13;46.25;;;-5.10;91.30;;;;;;5129647;27;20060;-68
2021/01/12 06:44:57;;;;;;;76.22;34.60;;;-5.10;91.20;;;;;;5129569;27;20031;-68
2021/01/12 06:47:28;;;;;;;72.55;34.53;;;-5.10;91.20;;;;;;5129962;27;20076;-69
2021/01/12 06:50:14;;;;;;;83.38;36.35;;;-5.10;91.30;;;;;;5129713;27;20031;-68
2021/01/12 06:52:43;;;;;;;86.68;37.67;;;-5.00;91.60;;;;;;5128914;27;20035;-69
2021/01/12 06:55:11;;;;;;;98.05;38.83;;;-5.10;91.50;;;;;;5110668;27;20024;-68
2021/01/12 06:57:37;;;;;;;104.68;43.90;;;-5.10;91.30;;;;;;5129024;27;20520;-68
2021/01/12 07:00:08;;;;;;;79.05;35.95;;;-5.00;91.20;;;;;;5129921;27;20027;-68
2021/01/12 07:02:34;;;;;;;82.15;35.17;;;-4.90;91.10;;;;;;5129505;27;20110;-68
2021/01/12 07:05:06;;;;;;;63.95;28.90;;;-4.90;91.10;;;;;;5129744;27;20451;-69
2021/01/12 07:07:35;;;;;;;97.40;43.10;;;-4.80;91.10;;;;;;5129235;27;20027;-68
2021/01/12 07:10:10;;;;;;;74.78;34.55;;;-4.60;91.10;;;;;;5129414;27;20084;-68
2021/01/12 07:12:36;;;;;;;57.35;27.13;;;-4.50;91.00;;;;;;5128968;27;20122;-68
2021/01/12 07:15:25;;;;;;;68.03;29.63;;;-4.40;91.00;;;;;;5129574;27;20106;-69
2021/01/12 07:17:53;;;;;;;85.70;36.08;;;-4.10;90.70;;;;;;5129003;27;20055;-67
2021/01/12 07:20:20;;;;;;;123.45;47.58;;;-3.60;90.20;;;;;;5129204;27;20065;-68
2021/01/12 07:22:57;;;;;;;112.18;43.22;;;-3.20;86.60;;;;;;5110872;27;20027;-68
2021/01/12 07:25:28;;;;;;;89.22;37.35;;;-2.80;85.70;;;;;;5111967;27;20054;-68
2021/01/12 07:28:03;;;;;;;83.15;37.97;;;-2.40;84.90;;;;;;5090327;28;20436;-68
2021/01/12 07:30:29;;;;;;;92.80;39.65;;;-2.10;82.80;;;;;;5108609;28;20028;-68
2021/01/12 07:33:00;;;;;;;115.40;46.42;;;-1.90;82.30;;;;;;5108855;28;20127;-68
2021/01/12 07:35:27;;;;;;;116.38;47.55;;;-1.70;80.10;;;;;;5108260;28;20584;-68
2021/01/12 07:37:53;;;;;;;90.15;40.30;;;-1.50;80.80;;;;;;5108697;28;20404;-66
2021/01/12 07:40:20;;;;;;;77.72;34.17;;;-1.40;79.50;;;;;;5089345;28;20395;-68
2021/01/12 07:42:54;;;;;;;75.00;33.60;;;-1.40;79.70;;;;;;5090363;28;20028;-68
2021/01/12 07:45:25;;;;;;;72.50;33.60;;;-1.30;79.60;;;;;;5108068;28;20071;-67
2021/01/12 07:47:52;;;;;;;68.43;30.95;;;-1.20;79.30;;;;;;5108128;28;20038;-68
2021/01/12 07:50:20;;;;;;;59.50;30.85;;;-1.00;80.10;;;;;;5108479;28;20499;-68
2021/01/12 07:52:45;;;;;;;67.13;33.78;;;-0.80;78.90;;;;;;5107829;28;20035;-68
2021/01/12 07:55:11;;;;;;;;;;;-0.70;78.80;;;;;;5108301;28;20637;-65
2021/01/12 07:57:37;;;;;;;136.27;60.65;;;-0.60;78.00;;;;;;5089983;28;19907;-67
2021/01/12 08:00:09;;;;;;;142.77;60.30;;;-0.40;77.90;;;;;;5107428;28;20035;-67
2021/01/12 08:02:36;;;;;;;105.25;49.95;;;-0.10;77.40;;;;;;5089884;28;20484;-68
2021/01/12 08:05:06;;;;;;;120.88;57.45;;;0.30;75.70;;;;;;5106994;28;20032;-68
2021/01/12 08:07:32;;;;;;;143.00;65.57;;;0.80;75.20;;;;;;5107216;28;20153;-68
2021/01/12 08:09:58;;;;;;;;;;;1.10;74.70;;;;;;5107889;28;20111;-67
2021/01/12 08:12:25;;;;;;;186.48;90.25;;;1.40;72.30;;;;;;5107344;28;20005;-68
2021/01/12 08:14:52;;;;;;;155.00;75.78;;;1.70;70.90;;;;;;5108109;28;20030;-68
2021/01/12 08:17:23;;;;;;;155.65;81.78;;;2.00;69.80;;;;;;5107211;28;20407;-67
2021/01/12 08:19:48;;;;;;;137.85;71.20;;;2.30;69.00;;;;;;5107251;28;20027;-67
2021/01/12 08:22:17;;;;;;;;;;;2.60;68.30;;;;;;5107972;28;20027;-68
2021/01/12 08:24:46;;;;;;;123.18;64.43;;;2.90;65.20;;;;;;5117720;27;19927;-68
2021/01/12 08:27:20;;;;;;;110.97;56.95;;;3.10;65.50;;;;;;5128212;27;20035;-68
2021/01/12 08:29:46;;;;;;;114.90;56.20;;;3.30;65.90;;;;;;5127841;27;20046;-68
2021/01/12 08:32:13;;;;;;;;;;;3.60;65.00;;;;;;5128559;27;20031;-69
2021/01/12 08:35:10;;;;;;;97.70;52.67;;;3.90;62.30;;;;;;5127836;27;20068;-67
2021/01/12 08:37:38;;;;;;;94.68;51.72;;;4.40;62.10;;;;;;5125914;27;20039;-68
2021/01/12 08:40:07;;;;;;;86.72;48.08;;;4.80;60.10;;;;;;5127202;27;20073;-67
2021/01/12 08:42:33;;;;;;;79.65;44.72;;;5.10;60.00;;;;;;5127823;27;20107;-70
2021/01/12 08:45:00;;;;;;;79.45;44.45;;;5.50;57.30;;;;;;5108290;27;20482;-68
2021/01/12 08:47:27;;;;;;;66.40;37.63;;;5.80;55.80;;;;;;5127518;27;20023;-68
2021/01/12 08:50:05;;;;;;;65.00;36.58;;;6.10;53.80;;;;;;5127624;27;20243;-69
2021/01/12 08:52:32;;;;;;;48.92;29.63;;;6.20;52.30;;;;;;5108895;27;20027;-67
2021/01/12 08:54:58;;;;;;;42.45;25.85;;;6.10;52.50;;;;;;5108870;27;20029;-67
2021/01/12 08:57:23;;;;;;;;;;;5.90;51.10;;;;;;5127539;27;20035;-68
2021/01/12 08:59:49;;;;;;;27.95;16.05;;;5.60;51.70;;;;;;5127321;27;19914;-68
2021/01/12 09:02:18;;;;;;;;;;;5.40;52.40;;;;;;5128223;27;20388;-68
2021/01/12 09:04:45;;;;;;;22.77;13.10;;;5.20;50.20;;;;;;5127512;27;19915;-68
2021/01/12 09:07:10;;;;;;;22.55;13.38;;;4.90;51.80;;;;;;5127582;27;20031;-67
2021/01/12 09:09:36;;;;;;;;;;;4.80;53.40;;;;;;5127025;27;20042;-68
2021/01/12 09:12:05;;;;;;;23.25;13.43;;;4.60;54.60;;;;;;5127243;27;19908;-69
2021/01/12 09:14:31;;;;;;;19.05;11.07;;;4.40;54.70;;;;;;5108709;27;20038;-68
2021/01/12 09:19:42;;;;;;;26.10;13.55;;;4.20;55.20;;;;;;5127371;27;19959;-67
2021/01/12 09:22:08;;;;;;;;;;;4.00;56.20;;;;;;5127683;27;20031;-68
2021/01/12 09:24:37;;;;;;;26.77;14.73;;;3.90;57.40;;;;;;5107881;28;19972;-68
2021/01/12 09:27:04;;;;;;;27.42;16.33;;;3.90;58.30;;;;;;5126929;27;20055;-68
2021/01/12 09:29:35;;;;;;;;;;;3.80;59.80;;;;;;5127470;27;20636;-68
2021/01/12 09:32:01;;;;;;;33.88;17.40;;;3.70;60.60;;;;;;5126881;28;20318;-67
2021/01/12 09:34:26;;;;;;;;;;;3.60;61.20;;;;;;5127300;28;20084;-68
2021/01/12 09:36:52;;;;;;;32.00;16.83;;;3.50;61.80;;;;;;5126964;28;19958;-68
2021/01/12 09:39:17;;;;;;;;;;;3.40;61.50;;;;;;5126860;28;20491;-68
2021/01/12 09:41:43;;;;;;;28.95;16.10;;;3.30;61.80;;;;;;5126958;28;19917;-67
2021/01/12 09:44:09;;;;;;;;;;;3.10;62.00;;;;;;5127442;28;20019;-67
2021/01/12 09:46:36;;;;;;;25.27;13.73;;;3.10;61.80;;;;;;5126418;28;20295;-68
2021/01/12 09:49:02;;;;;;;27.55;13.73;;;3.10;61.70;;;;;;5126929;28;20475;-68
2021/01/12 09:51:28;;;;;;;29.55;14.68;;;3.00;61.30;;;;;;5126676;28;20047;-68
2021/01/12 09:53:53;;;;;;;;;;;3.00;60.50;;;;;;5126546;28;20518;-68
2021/01/12 09:56:20;;;;;;;30.75;14.85;;;2.90;61.10;;;;;;5126833;28;19914;-68
2021/01/12 09:58:49;;;;;;;25.00;14.45;;;2.90;61.30;;;;;;5126734;28;20080;-68
2021/01/12 10:01:15;;;;;;;23.15;14.07;;;2.80;61.70;;;;;;5127066;28;20560;-68
2021/01/12 10:03:41;;;;;;;27.08;14.65;;;2.70;61.90;;;;;;5126406;28;20027;-68
2021/01/12 10:06:06;;;;;;;;;;;2.70;62.30;;;;;;5127246;28;20076;-69
2021/01/12 10:08:33;;;;;;;28.75;15.15;;;2.60;62.60;;;;;;5107609;28;19933;-68
2021/01/12 10:10:59;;;;;;;27.95;14.60;;;2.60;62.50;;;;;;5126958;28;20023;-67
2021/01/12 10:13:24;;;;;;;;;;;2.50;62.00;;;;;;5126984;28;20037;-66
2021/01/12 10:15:50;;;;;;;27.00;15.25;;;2.50;61.90;;;;;;5127025;28;19903;-68
2021/01/12 10:18:15;;;;;;;;;;;2.50;61.50;;;;;;5127453;28;20028;-67
2021/01/12 10:20:41;;;;;;;25.33;13.40;;;2.40;62.10;;;;;;5126345;28;19933;-66
2021/01/12 10:23:07;;;;;;;;;;;2.40;61.60;;;;;;5126587;28;20213;-67
2021/01/12 10:25:33;;;;;;;30.17;14.88;;;2.30;63.00;;;;;;5126465;28;19923;-67
2021/01/12 10:27:59;;;;;;;;;;;2.20;62.40;;;;;;5128583;27;20568;-67
2021/01/12 10:30:25;;;;;;;22.23;11.98;;;2.20;62.50;;;;;;5130773;27;19961;-67
2021/01/12 10:32:50;;;;;;;;;;;2.20;61.30;;;;;;5130794;27;20173;-65
2021/01/12 10:35:16;;;;;;;26.88;12.38;;;2.20;62.10;;;;;;5130028;27;19911;-65
2021/01/12 10:37:46;;;;;;;27.00;14.55;;;2.10;62.50;;;;;;5130075;27;20091;-67
2021/01/12 10:40:13;;;;;;;23.63;13.43;;;2.20;61.30;;;;;;5111352;27;20118;-67
2021/01/12 10:42:43;;;;;;;24.23;12.25;;;2.20;60.40;;;;;;5129729;27;20027;-66
2021/01/12 10:45:10;;;;;;;27.30;13.15;;;2.20;61.20;;;;;;5130079;27;20038;-66
2021/01/12 10:47:43;;;;;;;33.80;16.48;;;2.10;60.90;;;;;;5129664;27;20093;-67
2021/01/12 10:50:17;;;;;;;42.50;21.70;;;2.10;62.10;;;;;;5130015;27;20019;-66
2021/01/12 10:52:43;;;;;;;24.30;13.52;;;2.00;62.20;;;;;;5128888;27;20267;-64
2021/01/12 10:55:09;;;;;;;;;;;2.10;60.30;;;;;;5129370;27;20031;-66
2021/01/12 10:57:35;;;;;;;23.50;11.85;;;2.10;60.20;;;;;;5128937;27;20371;-66
2021/01/12 11:00:03;;;;;;;22.65;11.82;;;2.10;60.80;;;;;;5128986;27;20023;-67
2021/01/12 11:02:32;;;;;;;29.23;12.75;;;2.10;60.50;;;;;;5129519;27;20034;-65
2021/01/12 11:04:58;;;;;;;24.08;12.18;;;2.10;60.70;;;;;;5129313;27;20038;-67
2021/01/12 11:07:24;;;;;;;;;;;2.10;62.10;;;;;;5129214;27;20055;-67
2021/01/12 11:09:49;;;;;;;21.98;11.13;;;2.10;60.50;;;;;;5110854;27;20416;-66
2021/01/12 11:12:15;;;;;;;;;;;2.10;61.30;;;;;;5130149;27;20065;-68
2021/01/12 11:14:41;;;;;;;19.13;9.52;;;2.10;60.00;;;;;;5129419;27;19907;-66
2021/01/12 11:17:06;;;;;;;;;;;2.20;59.30;;;;;;5129853;27;20027;-67
2021/01/12 11:19:32;;;;;;;18.65;9.07;;;2.10;59.00;;;;;;5129303;27;19913;-67
2021/01/12 11:21:57;;;;;;;;;;;2.10;59.80;;;;;;5111050;27;20175;-66
2021/01/12 11:24:24;;;;;;;15.60;8.68;;;2.10;58.00;;;;;;5129255;27;19955;-66
2021/01/12 11:26:51;;;;;;;22.05;10.88;;;2.10;58.50;;;;;;5129138;27;20031;-66
2021/01/12 11:29:17;;;;;;;22.20;11.52;;;2.10;59.40;;;;;;5129290;27;20026;-65
2021/01/12 11:31:43;;;;;;;;;;;2.10;59.70;;;;;;5129171;27;20027;-67
2021/01/12 11:34:10;;;;;;;26.15;13.48;;;2.00;60.20;;;;;;5129191;27;19947;-67
2021/01/12 11:36:40;;;;;;;20.58;10.60;;;2.00;61.60;;;;;;5128931;27;20031;-67
2021/01/12 11:39:09;;;;;;;19.83;10.98;;;2.10;60.40;;;;;;5109866;27;20023;-67
2021/01/12 11:41:44;;;;;;;18.88;9.52;;;2.00;60.50;;;;;;5129141;27;20023;-65
2021/01/12 11:44:09;;;;;;;18.25;10.13;;;2.10;60.10;;;;;;5128770;27;20084;-66
2021/01/12 11:46:35;;;;;;;;;;;2.10;59.80;;;;;;5129467;27;20028;-66
2021/01/12 11:49:00;;;;;;;18.52;10.25;;;2.10;59.50;;;;;;5128521;27;19903;-66
2021/01/12 11:51:46;;;;;;;;;;;2.10;60.10;;;;;;5128605;27;20416;-66
2021/01/12 11:54:12;;;;;;;16.05;8.68;;;2.10;60.10;;;;;;5110203;27;19911;-67
2021/01/12 11:56:38;;;;;;;16.75;8.48;;;2.10;57.40;;;;;;5128808;27;20038;-66
2021/01/12 11:59:05;;;;;;;15.32;8.13;;;2.10;58.00;;;;;;5128795;27;20023;-66
2021/01/12 12:01:44;;;;;;;19.73;9.02;;;2.10;58.80;;;;;;5127913;27;20038;-65
2021/01/12 12:04:09;;;;;;;18.70;10.05;;;2.10;58.80;;;;;;5128616;27;20019;-65
2021/01/12 12:06:35;;;;;;;;;;;2.10;59.70;;;;;;5110057;27;20041;-66
2021/01/12 12:09:01;;;;;;;40.30;19.48;;;2.20;59.80;;;;;;5128136;27;19947;-66
2021/01/12 12:11:27;;;;;;;22.42;12.15;;;2.20;59.10;;;;;;5128173;27;20076;-66
2021/01/12 12:13:52;;;;;;;;;;;2.30;59.80;;;;;;5128456;27;20023;-66
2021/01/12 12:16:19;;;;;;;27.92;13.18;;;2.30;60.50;;;;;;5128017;27;19930;-66
2021/01/12 12:18:46;;;;;;;24.52;11.35;;;2.30;60.50;;;;;;5128434;27;20027;-66
2021/01/12 12:21:15;;;;;;;21.38;11.52;;;2.30;59.80;;;;;;5127576;27;20043;-66
2021/01/12 12:23:42;;;;;;;18.00;8.85;;;2.30;60.70;;;;;;5127733;27;20019;-66
2021/01/12 12:26:12;;;;;;;22.35;10.07;;;2.30;60.60;;;;;;5109489;27;20595;-66
2021/01/12 12:28:37;;;;;;;16.27;8.80;;;2.40;58.60;;;;;;5109437;27;20023;-67
2021/01/12 12:31:03;;;;;;;;;;;2.40;57.50;;;;;;5110069;27;20123;-65
2021/01/12 12:33:29;;;;;;;14.68;6.93;;;2.40;58.10;;;;;;5109358;27;19907;-66
2021/01/12 12:35:55;;;;;;;;;;;2.50;58.50;;;;;;5128370;27;20495;-66
2021/01/12 12:38:20;;;;;;;11.00;5.40;;;2.50;58.90;;;;;;5127077;27;20013;-65
2021/01/12 12:40:46;;;;;;;;;;;2.50;57.40;;;;;;5109650;27;20031;-65
2021/01/12 12:43:11;;;;;;;13.43;6.18;;;2.50;57.10;;;;;;5127901;27;19919;-67
2021/01/12 12:45:38;;;;;;;;;;;2.50;56.00;;;;;;5109133;27;20632;-66
2021/01/12 12:48:06;;;;;;;17.08;8.13;;;2.50;55.80;;;;;;5092687;27;19942;-66